Time;durP1;ratioP1;P1;durP2;ratioP2;P2;SDS_P1;SDS_P2;PMS_P1;PMS_P2;Temp;Humidity;BMP_temperature;BMP_pressure;BME280_temperature;BME280_humidity;BME280_pressure;Samples;Min_cycle;Max_cycle;Signal;HPM_P1;HPM_P2
2022/08/12 00:45:10;;;;;;;;;;;;;;;16.70;55.23;100682.88;5073304;28;960;-56
2022/08/12 00:47:36;;;;;;;;;;;;;;;16.67;55.21;100685.38;5064038;28;987;-55
2022/08/12 00:50:01;;;;;;;;;;;;;;;16.60;55.44;100680.16;5064546;28;2610;-55
2022/08/12 00:52:27;;;;;;;;;;;;;;;16.63;55.29;100684.28;5051492;28;1060;-55
2022/08/12 00:54:59;;;;;;;;;;;;;;;16.52;55.17;100689.78;5066637;28;1199;-54
2022/08/12 00:57:24;;;;;;;;;;;;;;;16.54;55.09;100689.50;5072805;28;1974;-57
2022/08/12 00:59:54;;;;;;;;;;;;;;;16.53;55.04;100696.09;5071073;28;1231;-57
2022/08/12 01:02:22;;;;;;;;;;;;;;;16.51;55.08;100698.28;5073735;28;1067;-56
2022/08/12 01:13:01;;;;;;;;;;;;;;;17.44;56.22;100679.69;5064579;28;1029;-55
2022/08/12 01:15:27;;;;;;;;;;;;;;;17.02;56.80;100683.69;5064895;28;1934;-56
2022/08/12 01:17:53;;;;;;;;;;;;;;;16.88;56.32;100683.41;5065569;28;910;-56
2022/08/12 01:20:34;;;;;;;;;;;;;;;16.83;56.05;100691.66;5046680;28;1841;-54
2022/08/12 01:23:03;;;;;;;;;;;;;;;16.76;55.80;100695.53;5073229;28;1016;-56
2022/08/12 01:25:29;;;;;;;;;;;;;;;16.68;55.65;100682.34;5071999;28;1140;-56
2022/08/12 01:27:55;;;;;;;;;;;;;;;16.66;55.62;100695.53;5057064;28;1053;-56
2022/08/12 01:30:20;;;;;;;;;;;;;;;16.67;55.21;100688.13;5058793;28;921;-56
2022/08/12 01:32:46;;;;;;;;;;;;;;;16.62;55.28;100690.84;5040708;28;1258;-57
2022/08/12 01:35:12;;;;;;;;;;;;;;;16.61;55.12;100687.31;5068378;28;977;-56
2022/08/12 01:37:40;;;;;;;;;;;;;;;16.55;55.21;100680.16;5066896;28;1922;-56
2022/08/12 01:40:06;;;;;;;;;;;;;;;16.54;55.04;100684.03;5070933;28;993;-55
2022/08/12 01:42:36;;;;;;;;;;;;;;;16.50;55.24;100671.94;5043538;28;1143;-55
2022/08/12 01:45:01;;;;;;;;;;;;;;;16.46;54.92;100690.88;5051843;28;1021;-56
2022/08/12 01:47:29;;;;;;;;;;;;;;;16.67;55.44;100686.19;5070342;28;1012;-55
2022/08/12 01:50:13;;;;;;;;;;;;;;;17.68;55.50;100690.84;5063830;28;1872;-55
2022/08/12 01:52:45;;;;;;;;;;;;;;;17.06;56.51;100684.78;5066584;28;993;-54
2022/08/12 01:55:11;;;;;;;;;;;;;;;16.89;56.35;100674.13;5061954;28;1025;-51
2022/08/12 01:57:46;;;;;;;;;;;;;;;16.79;56.13;100676.84;5055718;28;1979;-56
2022/08/12 02:00:12;;;;;;;;;;;;;;;16.74;55.77;100678.47;5043904;28;1064;-56
2022/08/12 02:02:39;;;;;;;;;;;;;;;16.76;55.55;100679.03;5074630;28;993;-56
2022/08/12 02:13:59;;;;;;;;;;;;;;;16.51;55.43;100679.06;5066792;28;1187;-54
2022/08/12 02:16:35;;;;;;;;;;;;;;;16.49;55.23;100675.78;5064124;28;1913;-54
2022/08/12 02:19:09;;;;;;;;;;;;;;;16.49;55.08;100675.78;5047477;28;2369;-55
2022/08/12 02:21:58;;;;;;;;;;;;;;;16.46;54.91;100674.41;5075591;28;1009;-55
2022/08/12 02:24:23;;;;;;;;;;;;;;;16.40;55.18;100673.59;5059392;28;1048;-52
2022/08/12 02:26:48;;;;;;;;;;;;;;;17.27;55.63;100671.78;5071977;28;1147;-55
2022/08/12 02:29:14;;;;;;;;;;;;;;;17.29;56.28;100666.81;5052787;28;1056;-54
2022/08/12 02:31:44;;;;;;;;;;;;;;;16.95;56.48;100669.44;5067372;28;993;-56
2022/08/12 02:34:11;;;;;;;;;;;;;;;16.82;56.28;100668.88;5060828;28;1040;-55
2022/08/12 02:36:36;;;;;;;;;;;;;;;16.79;55.92;100668.59;5056192;28;1979;-55
2022/08/12 02:39:02;;;;;;;;;;;;;;;16.74;55.70;100673.00;5053278;28;1164;-55
2022/08/12 02:41:27;;;;;;;;;;;;;;;16.63;55.80;100674.09;5074308;28;1021;-57
2022/08/12 02:43:54;;;;;;;;;;;;;;;16.63;55.45;100678.78;5054968;28;1160;-56
2022/08/12 02:46:22;;;;;;;;;;;;;;;16.60;55.37;100680.16;5050991;28;1120;-56
2022/08/12 02:48:47;;;;;;;;;;;;;;;16.54;55.40;100678.53;5056846;28;993;-56
2022/08/12 02:51:16;;;;;;;;;;;;;;;16.52;55.18;100664.25;5067115;28;2740;-55
2022/08/12 02:53:41;;;;;;;;;;;;;;;16.52;54.97;100666.97;5069847;28;1217;-54
2022/08/12 02:56:07;;;;;;;;;;;;;;;16.48;55.05;100665.88;5052862;28;1949;-56
2022/08/12 02:58:34;;;;;;;;;;;;;;;16.45;55.51;100661.78;5065019;28;1128;-56
2022/08/12 03:01:00;;;;;;;;;;;;;;;17.62;55.64;100665.31;5070987;28;1041;-55
2022/08/12 03:03:29;;;;;;;;;;;;;;;17.08;56.41;100661.44;5066314;28;988;-56
2022/08/12 03:06:20;;;;;;;;;;;;;;;16.88;56.50;100655.94;5069433;28;1008;-56
2022/08/12 03:08:46;;;;;;;;;;;;;;;16.74;55.97;100673.00;5057413;28;1661;-56
2022/08/12 03:11:15;;;;;;;;;;;;;;;16.71;55.90;100668.06;5073405;28;1044;-56
2022/08/12 03:13:41;;;;;;;;;;;;;;;16.71;55.74;100675.50;5070786;28;1171;-56
2022/08/12 03:16:07;;;;;;;;;;;;;;;16.64;55.33;100672.22;5056759;28;1975;-54
2022/08/12 03:18:33;;;;;;;;;;;;;;;16.55;55.57;100672.75;5067457;28;1123;-54
2022/08/12 03:20:59;;;;;;;;;;;;;;;16.55;55.10;100681.00;5072560;28;2643;-54
2022/08/12 03:23:25;;;;;;;;;;;;;;;16.54;55.21;100673.84;5074431;28;1083;-54
2022/08/12 03:25:50;;;;;;;;;;;;;;;16.54;55.02;100673.84;5058978;28;990;-54
2022/08/12 03:28:49;;;;;;;;;;;;;;;16.51;55.00;100677.16;5077445;28;1508;-54
2022/08/12 03:31:02;;;;;;;;;;;;;;;16.48;55.12;100679.63;5050206;28;1421;-55
2022/08/12 03:33:29;;;;;;;;;;;;;;;16.43;54.89;100677.69;5067624;28;1072;-57
2022/08/12 03:35:54;;;;;;;;;;;;;;;16.39;55.00;100677.41;5055670;28;1906;-56
2022/08/12 03:38:20;;;;;;;;;;;;;;;16.92;55.67;100679.03;5075730;28;1044;-58
2022/08/12 04:02:57;;;;;;;;;;;;;;;16.55;55.39;100689.22;5047285;28;1008;-55
2022/08/12 04:05:23;;;;;;;;;;;;;;;16.56;55.53;100681.81;5040472;28;1016;-58
2022/08/12 04:07:49;;;;;;;;;;;;;;;17.66;55.74;100681.25;5049894;28;1102;-58
2022/08/12 04:10:14;;;;;;;;;;;;;;;17.07;56.78;100680.94;5039600;28;1154;-58
2022/08/12 04:15:24;;;;;;;;;;;;;;;16.80;56.14;100686.72;5044169;28;1988;-57
2022/08/12 04:17:50;;;;;;;;;;;;;;;16.71;56.12;100701.00;5052061;28;1064;-58
2022/08/12 04:20:18;;;;;;;;;;;;;;;16.71;55.67;100700.19;5050547;28;1825;-58
2022/08/12 04:22:44;;;;;;;;;;;;;;;16.63;55.69;100698.81;5054810;28;1056;-58
2022/08/12 04:25:09;;;;;;;;;;;;;;;16.65;55.42;100695.78;5052518;28;1112;-58
2022/08/12 04:27:35;;;;;;;;;;;;;;;16.55;55.46;100705.69;5046869;28;1040;-58
2022/08/12 04:30:00;;;;;;;;;;;;;;;16.57;55.19;100703.50;5054313;28;1143;-59
2022/08/12 04:32:26;;;;;;;;;;;;;;;16.52;55.38;100698.03;5056140;28;1012;-57
2022/08/12 04:34:51;;;;;;;;;;;;;;;16.51;55.25;100696.38;5056196;28;1037;-58
2022/08/12 04:37:17;;;;;;;;;;;;;;;16.47;55.45;100700.75;5055350;28;1910;-58
2022/08/12 04:39:43;;;;;;;;;;;;;;;16.41;55.49;100702.69;5047537;28;1032;-58
2022/08/12 04:42:08;;;;;;;;;;;;;;;16.45;55.18;100707.63;5050581;28;1167;-57
2022/08/12 04:44:34;;;;;;;;;;;;;;;17.29;56.02;100708.06;5044927;28;1076;-58
2022/08/12 04:46:59;;;;;;;;;;;;;;;17.45;56.22;100701.41;5055774;28;1274;-58
2022/08/12 04:49:25;;;;;;;;;;;;;;;17.03;56.92;100699.09;5055498;28;1966;-56
2022/08/12 04:51:50;;;;;;;;;;;;;;;16.91;56.40;100700.22;5042245;28;1131;-57
2022/08/12 04:54:15;;;;;;;;;;;;;;;16.79;56.11;100696.06;5039720;28;1222;-56
2022/08/12 04:56:42;;;;;;;;;;;;;;;16.77;56.03;100702.66;5041011;28;1999;-56
2022/08/12 04:59:10;;;;;;;;;;;;;;;16.72;55.94;100699.09;5041014;28;1302;-56
2022/08/12 05:01:36;;;;;;;;;;;;;;;16.71;55.56;100701.00;5037809;28;1194;-56
2022/08/12 05:04:01;;;;;;;;;;;;;;;16.64;55.47;100705.16;5040270;28;962;-56
2022/08/12 05:06:27;;;;;;;;;;;;;;;16.61;55.38;100709.25;5037273;28;1104;-55
2022/08/12 05:08:55;;;;;;;;;;;;;;;16.58;55.65;100701.59;5036777;28;1077;-56
2022/08/12 05:11:21;;;;;;;;;;;;;;;16.55;55.40;100705.69;5040555;28;1096;-57
2022/08/12 05:13:47;;;;;;;;;;;;;;;16.54;55.52;100711.47;5039445;28;1049;-56
2022/08/12 05:16:13;;;;;;;;;;;;;;;16.51;55.28;100712.00;5037943;28;1910;-56
2022/08/12 05:18:38;;;;;;;;;;;;;;;16.50;55.20;100711.19;5040122;28;1087;-56
2022/08/12 05:21:04;;;;;;;;;;;;;;;16.70;55.67;100715.84;5041783;28;1774;-56
2022/08/12 05:23:32;;;;;;;;;;;;;;;17.70;55.85;100704.34;5040585;28;1072;-57
2022/08/12 05:25:59;;;;;;;;;;;;;;;17.14;56.76;100699.84;5055185;28;1024;-58
2022/08/12 05:28:25;;;;;;;;;;;;;;;16.99;56.40;100701.53;5043278;28;1103;-57
2022/08/12 05:30:51;;;;;;;;;;;;;;;16.83;56.42;100703.47;5047368;28;1041;-56
2022/08/12 05:33:16;;;;;;;;;;;;;;;16.80;56.05;100704.00;5055032;28;1193;-56
2022/08/12 05:35:43;;;;;;;;;;;;;;;16.76;56.06;100706.50;5054751;28;1897;-55
2022/08/12 05:40:53;;;;;;;;;;;;;;;16.69;55.56;100703.22;5055133;28;1029;-57
2022/08/12 05:43:18;;;;;;;;;;;;;;;16.66;55.65;100703.78;5040822;28;890;-57
2022/08/12 05:45:44;;;;;;;;;;;;;;;16.60;55.85;100691.13;5049504;28;1179;-56
2022/08/12 05:48:10;;;;;;;;;;;;;;;18.00;53.17;100689.59;5052444;28;1116;-54
2022/08/12 05:50:36;;;;;;;;;;;;;;;17.38;54.88;100691.81;5051775;28;2145;-57
2022/08/12 05:53:01;;;;;;;;;;;;;;;16.80;54.28;100692.22;5059195;28;977;-55
2022/08/12 05:55:26;;;;;;;;;;;;;;;17.87;54.89;100693.78;5057377;28;1913;-54
2022/08/12 05:57:54;;;;;;;;;;;;;;;17.06;54.66;100684.78;5078577;28;1108;-56
2022/08/12 06:00:20;;;;;;;;;;;;;;;16.86;53.21;100691.13;5075067;28;981;-56
2022/08/12 06:02:46;;;;;;;;;;;;;;;16.81;52.30;100691.13;5072670;28;1017;-57
2022/08/12 06:05:11;;;;;;;;;;;;;;;17.41;53.97;100691.25;5065076;28;1163;-54
2022/08/12 06:07:40;;;;;;;;;;;;;;;17.74;54.57;100684.22;5078678;28;893;-55
2022/08/12 06:10:06;;;;;;;;;;;;;;;17.18;53.71;100684.47;5078476;28;1112;-53
2022/08/12 06:12:31;;;;;;;;;;;;;;;17.02;52.50;100683.69;5059943;28;1096;-54
2022/08/12 06:14:57;;;;;;;;;;;;;;;16.92;51.96;100679.03;5078471;28;949;-53
2022/08/12 06:17:22;;;;;;;;;;;;;;;16.87;51.72;100676.28;5077946;28;2006;-56
2022/08/12 06:19:48;;;;;;;;;;;;;;;18.17;53.79;100682.88;5074836;28;1824;-56
2022/08/12 06:22:14;;;;;;;;;;;;;;;15.53;61.06;100679.72;5073713;28;1167;-56
2022/08/12 06:24:39;;;;;;;;;;;;;;;17.24;58.34;100691.59;5078011;28;966;-53
2022/08/12 06:27:05;;;;;;;;;;;;;;;18.50;56.55;100683.19;5063162;28;1087;-56
2022/08/12 06:29:30;;;;;;;;;;;;;;;15.32;64.30;100695.25;5078238;28;965;-55
2022/08/12 06:31:55;;;;;;;;;;;;;;;16.83;55.85;100686.16;5075221;28;1206;-52
2022/08/12 06:34:21;;;;;;;;;;;;;;;16.95;53.61;100680.41;5077279;28;965;-49
2022/08/12 06:36:46;;;;;;;;;;;;;;;16.94;52.46;100676.84;5075130;28;1986;-51
2022/08/12 06:39:12;;;;;;;;;;;;;;;16.98;51.36;100677.09;5077662;28;1150;-52
2022/08/12 06:44:22;;;;;;;;;;;;;;;16.91;50.64;100682.88;5064640;28;1104;-52
2022/08/12 06:46:47;;;;;;;;;;;;;;;16.85;50.28;100681.22;5077517;28;953;-57
2022/08/12 06:49:13;;;;;;;;;;;;;;;16.87;50.04;100681.75;5072862;28;1808;-50
2022/08/12 06:51:38;;;;;;;;;;;;;;;17.15;51.04;100685.03;5063883;28;1037;-54
2022/08/12 06:54:03;;;;;;;;;;;;;;;17.66;52.95;100686.75;5077653;28;1005;-54
2022/08/12 06:56:29;;;;;;;;;;;;;;;17.26;52.69;100684.72;5076796;28;1979;-52
2022/08/12 06:58:56;;;;;;;;;;;;;;;17.14;51.61;100680.63;5065616;28;998;-54
2022/08/12 07:01:24;;;;;;;;;;;;;;;17.14;50.74;100686.13;5076956;28;1119;-51
2022/08/12 07:03:52;;;;;;;;;;;;;;;17.09;50.34;100685.03;5071179;28;1160;-51
2022/08/12 07:06:17;;;;;;;;;;;;;;;17.01;50.17;100682.88;5060273;28;1125;-49
2022/08/12 07:08:43;;;;;;;;;;;;;;;17.05;49.71;100683.13;5045486;28;1234;-53
2022/08/12 07:11:10;;;;;;;;;;;;;;;17.00;49.47;100677.63;5067653;28;984;-55
2022/08/12 07:13:42;;;;;;;;;;;;;;;17.02;49.37;100698.25;5071024;28;1044;-51
2022/08/12 07:16:08;;;;;;;;;;;;;;;17.00;49.16;100681.22;5076424;28;1926;-54
2022/08/12 07:18:33;;;;;;;;;;;;;;;17.03;49.01;100677.09;5077324;28;1012;-49
2022/08/12 07:21:00;;;;;;;;;;;;;;;17.00;48.66;100680.38;5076466;28;1943;-51
2022/08/12 07:23:26;;;;;;;;;;;;;;;16.95;48.62;100681.22;5077316;28;981;-47
2022/08/12 07:25:52;;;;;;;;;;;;;;;17.06;49.19;100691.09;5076824;28;977;-52
2022/08/12 07:28:18;;;;;;;;;;;;;;;17.78;51.00;100687.22;5077236;28;996;-48
2022/08/12 07:30:44;;;;;;;;;;;;;;;17.40;50.55;100686.84;5077085;28;1068;-48
2022/08/12 07:33:10;;;;;;;;;;;;;;;17.21;50.27;100687.47;5074005;28;917;-51
2022/08/12 07:35:46;;;;;;;;;;;;;;;17.21;49.77;100687.47;5074909;28;1917;-51
2022/08/12 07:38:24;;;;;;;;;;;;;;;17.20;49.32;100690.50;5069220;28;918;-47
2022/08/12 07:41:12;;;;;;;;;;;;;;;17.21;48.67;100678.44;5068519;28;946;-49
2022/08/12 07:44:00;;;;;;;;;;;;;;;17.20;48.56;100680.34;5068150;28;926;-49
2022/08/12 07:46:29;;;;;;;;;;;;;;;17.20;48.46;100679.53;5050727;28;1791;-50
2022/08/12 07:48:56;;;;;;;;;;;;;;;17.20;49.08;100669.34;5059954;28;1999;-49
2022/08/12 07:51:21;;;;;;;;;;;;;;;17.19;49.05;100666.88;5062228;28;1088;-52
2022/08/12 07:53:48;;;;;;;;;;;;;;;17.24;48.93;100675.13;5065449;28;1084;-51
2022/08/12 07:56:13;;;;;;;;;;;;;;;17.14;48.55;100664.13;5065137;28;1958;-51
2022/08/12 07:58:39;;;;;;;;;;;;;;;17.16;48.46;100664.69;5075865;28;957;-51
2022/08/12 08:01:05;;;;;;;;;;;;;;;17.12;49.05;100667.16;5067024;28;965;-51
2022/08/12 08:03:31;;;;;;;;;;;;;;;17.15;48.68;100672.09;5064981;28;1091;-51
2022/08/12 08:05:57;;;;;;;;;;;;;;;17.19;48.22;100675.13;5063020;28;1037;-55
2022/08/12 08:08:23;;;;;;;;;;;;;;;17.04;48.31;100674.06;5063499;28;1029;-49
2022/08/12 08:10:49;;;;;;;;;;;;;;;17.08;48.24;100677.06;5065611;28;1267;-56
2022/08/12 08:13:15;;;;;;;;;;;;;;;17.02;48.17;100687.25;5072686;28;1159;-55
2022/08/12 08:15:40;;;;;;;;;;;;;;;17.10;48.50;100674.88;5068626;28;1914;-55
2022/08/12 08:18:07;;;;;;;;;;;;;;;17.09;48.58;100675.97;5063188;28;1175;-51
2022/08/12 08:20:33;;;;;;;;;;;;;;;17.10;48.56;100675.69;5059272;28;1967;-54
2022/08/12 08:23:00;;;;;;;;;;;;;;;17.08;48.46;100669.66;5074683;28;1112;-55
2022/08/12 08:25:34;;;;;;;;;;;;;;;17.10;48.31;100667.44;5074797;28;974;-54
2022/08/12 08:28:09;;;;;;;;;;;;;;;17.02;48.73;100672.72;5062243;28;1128;-55
2022/08/12 08:30:37;;;;;;;;;;;;;;;17.06;48.65;100671.84;5074957;28;871;-54
2022/08/12 08:33:02;;;;;;;;;;;;;;;17.64;48.93;100661.44;5049333;28;863;-55
2022/08/12 08:35:28;;;;;;;;;;;;;;;17.54;50.22;100662.31;5075293;28;969;-55
2022/08/12 08:37:58;;;;;;;;;;;;;;;17.39;49.53;100660.47;5067923;28;1905;-58
2022/08/12 08:43:08;;;;;;;;;;;;;;;17.26;48.67;100668.25;5066183;28;973;-53
2022/08/12 08:45:34;;;;;;;;;;;;;;;17.25;48.55;100657.50;5071157;28;841;-52
2022/08/12 08:47:59;;;;;;;;;;;;;;;17.24;48.27;100659.44;5065194;28;942;-51
2022/08/12 08:50:25;;;;;;;;;;;;;;;17.27;48.06;100663.56;5074906;28;1951;-61
2022/08/12 08:52:50;;;;;;;;;;;;;;;17.18;48.24;100665.22;5063984;28;910;-63
2022/08/12 08:55:15;;;;;;;;;;;;;;;17.17;48.15;100656.16;5060458;28;1028;-62
2022/08/12 08:57:44;;;;;;;;;;;;;;;17.12;48.32;100656.19;5052099;28;1985;-62
2022/08/12 09:00:12;;;;;;;;;;;;;;;17.18;48.05;100665.22;5069617;28;1211;-62
2022/08/12 09:02:38;;;;;;;;;;;;;;;17.21;48.15;100667.44;5074609;28;945;-62
2022/08/12 09:05:03;;;;;;;;;;;;;;;17.14;48.29;100655.91;5075373;28;945;-62
2022/08/12 09:07:29;;;;;;;;;;;;;;;17.38;48.79;100654.16;5075454;28;965;-62
2022/08/12 09:09:56;;;;;;;;;;;;;;;17.89;49.98;100654.97;5070958;28;852;-64
2022/08/12 09:15:06;;;;;;;;;;;;;;;17.50;49.42;100639.25;5065631;28;1068;-64
2022/08/12 09:17:33;;;;;;;;;;;;;;;17.44;49.15;100643.97;5039403;28;1973;-54
2022/08/12 09:19:59;;;;;;;;;;;;;;;17.37;48.83;100640.69;5061066;28;2139;-51
2022/08/12 09:22:24;;;;;;;;;;;;;;;17.33;48.61;100645.13;5056860;28;1233;-53
2022/08/12 09:24:50;;;;;;;;;;;;;;;17.35;48.55;100632.75;5044483;28;1136;-53
2022/08/12 09:27:16;;;;;;;;;;;;;;;17.34;48.42;100631.09;5060994;28;1021;-52
2022/08/12 09:29:42;;;;;;;;;;;;;;;17.32;48.33;100621.47;5070692;28;1044;-53
2022/08/12 09:32:08;;;;;;;;;;;;;;;17.31;48.27;100628.91;5074598;28;977;-54
2022/08/12 09:34:35;;;;;;;;;;;;;;;17.28;48.13;100623.97;5072371;28;1069;-55
2022/08/12 09:37:01;;;;;;;;;;;;;;;17.30;48.16;100616.25;5078520;28;1909;-54
2022/08/12 09:39:26;;;;;;;;;;;;;;;17.26;48.08;100617.94;5065482;28;918;-53
2022/08/12 09:47:35;;;;;;;;;;;;;;;17.21;48.03;100612.47;5064012;28;1025;-53
2022/08/12 09:50:00;;;;;;;;;;;;;;;17.24;48.15;100601.72;5065956;28;1815;-53
2022/08/12 09:52:25;;;;;;;;;;;;;;;17.37;48.13;100608.53;5073697;28;1168;-52
2022/08/12 09:54:51;;;;;;;;;;;;;;;17.26;48.20;100601.44;5063989;28;1193;-52
2022/08/12 09:57:18;;;;;;;;;;;;;;;17.28;47.85;100589.06;5064970;28;1905;-56
2022/08/12 09:59:43;;;;;;;;;;;;;;;17.23;48.03;100599.25;5064242;28;1175;-52
2022/08/12 10:02:11;;;;;;;;;;;;;;;17.22;47.74;100590.22;5060314;28;1195;-53
2022/08/12 10:04:41;;;;;;;;;;;;;;;17.27;47.74;100594.84;5062617;28;1402;-55
2022/08/12 10:07:07;;;;;;;;;;;;;;;17.24;47.76;100592.69;5065668;28;981;-54
2022/08/12 10:09:32;;;;;;;;;;;;;;;17.19;47.98;100589.94;5078428;28;826;-53
2022/08/12 10:14:43;;;;;;;;;;;;;;;17.25;47.53;100577.81;5078273;28;1072;-54
2022/08/12 10:17:08;;;;;;;;;;;;;;;17.16;47.61;100579.53;5073186;28;2118;-53
2022/08/12 10:19:34;;;;;;;;;;;;;;;17.23;47.53;100575.34;5065468;28;1844;-52
2022/08/12 10:22:00;;;;;;;;;;;;;;;17.28;47.38;100577.25;5068284;28;977;-52
2022/08/12 10:24:25;;;;;;;;;;;;;;;17.29;47.57;100576.13;5078622;28;978;-54
2022/08/12 10:29:35;;;;;;;;;;;;;;;17.15;47.72;100572.38;5060253;28;1065;-53
2022/08/12 10:32:02;;;;;;;;;;;;;;;17.21;47.89;100569.31;5060730;28;1289;-53
2022/08/12 10:34:27;;;;;;;;;;;;;;;17.16;48.16;100571.28;5060822;28;946;-51
2022/08/12 10:36:57;;;;;;;;;;;;;;;17.19;47.87;100567.97;5059877;28;1905;-49
2022/08/12 10:39:24;;;;;;;;;;;;;;;17.26;47.63;100565.72;5071517;28;1318;-52
2022/08/12 10:44:35;;;;;;;;;;;;;;;17.16;47.94;100563.03;5074494;28;1024;-54
2022/08/12 10:47:00;;;;;;;;;;;;;;;17.22;47.77;100567.38;5062624;28;1139;-51
2022/08/12 10:49:26;;;;;;;;;;;;;;;17.18;47.83;100571.81;5070936;28;1828;-52
2022/08/12 10:51:53;;;;;;;;;;;;;;;17.17;47.93;100564.69;5058391;28;1092;-50
2022/08/12 10:54:19;;;;;;;;;;;;;;;17.22;47.62;100559.16;5071367;28;1151;-51
2022/08/12 10:56:48;;;;;;;;;;;;;;;17.17;47.87;100559.19;5068072;28;1984;-52
2022/08/12 10:59:17;;;;;;;;;;;;;;;17.26;47.34;100557.47;5064035;28;1175;-51
2022/08/12 11:01:42;;;;;;;;;;;;;;;17.33;47.49;100557.97;5059698;28;1096;-53
2022/08/12 11:04:12;;;;;;;;;;;;;;;17.27;47.60;100554.44;5065804;28;1203;-54
2022/08/12 11:06:47;;;;;;;;;;;;;;;17.22;47.73;100556.41;5068466;28;994;-49
2022/08/12 11:09:16;;;;;;;;;;;;;;;17.21;47.60;100552.03;5070196;28;1131;-63
2022/08/12 11:11:47;;;;;;;;;;;;;;;17.26;47.61;100539.09;5063811;28;1122;-65
2022/08/12 11:14:30;;;;;;;;;;;;;;;17.19;47.80;100546.78;5076445;28;985;-65
2022/08/12 11:16:56;;;;;;;;;;;;;;;17.20;47.84;100537.44;5071021;28;1933;-63
2022/08/12 11:19:22;;;;;;;;;;;;;;;17.26;47.46;100538.25;5066944;28;2021;-65
2022/08/12 11:21:48;;;;;;;;;;;;;;;17.26;47.45;100541.00;5076403;28;849;-61
2022/08/12 11:24:13;;;;;;;;;;;;;;;17.18;47.78;100534.19;5076491;28;1031;-64
2022/08/12 11:26:39;;;;;;;;;;;;;;;17.23;47.58;100530.56;5076332;28;1131;-63
2022/08/12 11:29:04;;;;;;;;;;;;;;;17.21;47.66;100528.09;5075822;28;1100;-63
2022/08/12 11:31:30;;;;;;;;;;;;;;;17.27;47.59;100531.66;5068890;28;1131;-62
2022/08/12 11:33:55;;;;;;;;;;;;;;;17.32;47.84;100533.53;5064403;28;1182;-54
2022/08/12 11:36:21;;;;;;;;;;;;;;;17.22;47.68;100534.41;5058508;28;1914;-52
2022/08/12 11:38:46;;;;;;;;;;;;;;;17.20;47.79;100531.16;5063409;28;1101;-51
2022/08/12 11:41:11;;;;;;;;;;;;;;;17.23;47.60;100531.38;5071358;28;1080;-53
2022/08/12 11:43:37;;;;;;;;;;;;;;;17.19;47.51;100530.31;5068253;28;1229;-52
2022/08/12 11:46:02;;;;;;;;;;;;;;;17.31;47.56;100538.22;5066040;28;1163;-49
2022/08/12 11:48:28;;;;;;;;;;;;;;;17.26;47.25;100538.25;5075729;28;1029;-49
2022/08/12 11:50:53;;;;;;;;;;;;;;;17.22;47.33;100531.66;5075510;28;1020;-51
2022/08/12 11:53:19;;;;;;;;;;;;;;;17.28;47.34;100539.59;5075186;28;977;-49
2022/08/12 11:55:44;;;;;;;;;;;;;;;17.28;47.62;100536.03;5064893;28;1910;-51
2022/08/12 11:58:10;;;;;;;;;;;;;;;17.31;47.46;100529.97;5058103;28;1064;-65
2022/08/12 12:00:35;;;;;;;;;;;;;;;17.21;47.58;100532.78;5067738;28;864;-64
2022/08/12 12:03:01;;;;;;;;;;;;;;;17.24;47.61;100521.22;5068765;28;981;-59
2022/08/12 12:05:26;;;;;;;;;;;;;;;17.22;47.42;100534.41;5072267;28;1003;-60
2022/08/12 12:07:52;;;;;;;;;;;;;;;17.17;47.60;100537.22;5076551;28;962;-56
2022/08/12 12:10:18;;;;;;;;;;;;;;;17.18;47.62;100538.84;5053173;28;1013;-58
2022/08/12 12:12:43;;;;;;;;;;;;;;;17.16;47.72;100541.06;5075584;28;1093;-63
2022/08/12 12:15:09;;;;;;;;;;;;;;;17.20;47.41;100542.13;5075833;28;1020;-64
2022/08/12 12:17:35;;;;;;;;;;;;;;;17.16;47.61;100535.56;5068889;28;1901;-64
2022/08/12 12:20:00;;;;;;;;;;;;;;;17.27;48.82;100526.16;5074822;28;2598;-63
2022/08/12 12:22:26;;;;;;;;;;;;;;;17.47;49.70;100529.88;5072242;28;2533;-57
2022/08/12 12:24:52;;;;;;;;;;;;;;;17.35;49.50;100528.31;5056596;28;1360;-49
2022/08/12 12:27:19;;;;;;;;;;;;;;;17.49;50.13;100528.47;5061551;28;2540;-55
2022/08/12 12:29:44;;;;;;;;;;;;;;;17.44;49.57;100528.50;5072278;28;1395;-51
2022/08/12 12:32:10;;;;;;;;;;;;;;;17.44;49.07;100537.56;5076100;28;1055;-53
2022/08/12 12:34:35;;;;;;;;;;;;;;;17.43;49.07;100535.94;5068810;28;1119;-56
2022/08/12 12:37:01;;;;;;;;;;;;;;;17.34;48.73;100531.34;5075345;28;1977;-55
2022/08/12 12:39:26;;;;;;;;;;;;;;;17.39;48.25;100536.78;5064880;28;953;-53
2022/08/12 12:41:52;;;;;;;;;;;;;;;17.35;48.23;100539.28;5052809;28;1256;-52
2022/08/12 12:44:17;;;;;;;;;;;;;;;17.34;48.15;100531.34;5057577;28;1242;-54
2022/08/12 12:46:43;;;;;;;;;;;;;;;17.41;47.91;100546.38;5061639;28;949;-55
2022/08/12 12:49:08;;;;;;;;;;;;;;;17.32;47.87;100541.78;5073429;28;1809;-54
2022/08/12 12:51:33;;;;;;;;;;;;;;;17.27;48.03;100531.66;5075573;28;937;-55
2022/08/12 12:53:59;;;;;;;;;;;;;;;17.50;49.48;100545.78;5075293;28;1069;-56
2022/08/12 12:56:24;;;;;;;;;;;;;;;17.59;50.35;100539.41;5075790;28;1914;-54
2022/08/12 12:58:50;;;;;;;;;;;;;;;17.51;49.64;100539.19;5069413;28;1060;-52
2022/08/12 13:01:17;;;;;;;;;;;;;;;17.43;49.02;100530.44;5070044;28;1034;-50
2022/08/12 13:03:44;;;;;;;;;;;;;;;17.45;48.56;100530.97;5065684;28;1050;-51
2022/08/12 13:06:09;;;;;;;;;;;;;;;17.44;48.24;100532.06;5060039;28;1032;-52
2022/08/12 13:08:35;;;;;;;;;;;;;;;17.41;48.28;100532.66;5074796;28;961;-51
2022/08/12 13:11:01;;;;;;;;;;;;;;;17.37;48.13;100539.81;5064667;28;950;-52
2022/08/12 13:13:28;;;;;;;;;;;;;;;17.33;47.80;100527.75;5066023;28;1194;-50
2022/08/12 13:15:55;;;;;;;;;;;;;;;17.31;47.82;100526.41;5058723;28;1989;-49
2022/08/12 13:18:20;;;;;;;;;;;;;;;17.32;47.70;100536.28;5070836;28;1029;-51
2022/08/12 13:20:46;;;;;;;;;;;;;;;17.33;47.90;100540.69;5070425;28;2165;-52
2022/08/12 13:23:12;;;;;;;;;;;;;;;17.27;48.11;100543.44;5074957;28;825;-50
2022/08/12 13:25:40;;;;;;;;;;;;;;;17.32;47.71;100539.03;5049646;28;1191;-55
2022/08/12 13:28:07;;;;;;;;;;;;;;;17.29;47.89;100540.41;5067967;28;1029;-54
2022/08/12 13:30:35;;;;;;;;;;;;;;;17.32;47.48;100534.38;5066467;28;1037;-54
2022/08/12 13:33:00;;;;;;;;;;;;;;;17.35;47.88;100541.19;5072726;28;1100;-54
2022/08/12 13:35:29;;;;;;;;;;;;;;;17.30;47.94;100541.25;5067320;28;1266;-54
2022/08/12 13:37:55;;;;;;;;;;;;;;;17.30;47.87;100538.50;5067972;28;1901;-55
2022/08/12 13:40:20;;;;;;;;;;;;;;;17.32;47.67;100539.88;5048251;28;1013;-55
2022/08/12 13:42:48;;;;;;;;;;;;;;;17.26;47.56;100533.59;5064229;28;966;-54
2022/08/12 13:45:17;;;;;;;;;;;;;;;17.30;47.76;100531.06;5064206;28;946;-53
2022/08/12 13:47:58;;;;;;;;;;;;;;;17.23;47.83;100527.81;5073341;28;935;-52
2022/08/12 13:50:28;;;;;;;;;;;;;;;17.23;47.52;100541.56;5071790;28;1983;-54
2022/08/12 13:52:53;;;;;;;;;;;;;;;17.16;47.54;100543.81;5066207;28;1459;-62
2022/08/12 13:55:24;;;;;;;;;;;;;;;17.20;47.56;100537.44;5061492;28;1266;-60
2022/08/12 13:57:50;;;;;;;;;;;;;;;17.18;47.69;100533.34;5072206;28;1973;-59
2022/08/12 14:00:16;;;;;;;;;;;;;;;17.22;48.04;100531.66;5065219;28;1053;-62
2022/08/12 14:02:42;;;;;;;;;;;;;;;17.20;48.03;100533.91;5063529;28;1207;-61
2022/08/12 14:05:08;;;;;;;;;;;;;;;17.18;48.04;100534.19;5068185;28;954;-63
2022/08/12 14:07:52;;;;;;;;;;;;;;;17.20;47.76;100526.47;5055513;28;1143;-65
2022/08/12 14:10:37;;;;;;;;;;;;;;;17.21;47.50;100524.56;5075260;28;1147;-60
2022/08/12 14:13:06;;;;;;;;;;;;;;;17.16;47.88;100536.38;5064775;28;774;-63
2022/08/12 14:15:32;;;;;;;;;;;;;;;17.13;47.74;100528.69;5074434;28;1128;-64
2022/08/12 14:18:23;;;;;;;;;;;;;;;17.14;47.60;100518.53;5070981;28;1906;-54
2022/08/12 14:21:00;;;;;;;;;;;;;;;17.17;47.38;100534.47;5061976;28;1996;-56
2022/08/12 14:23:31;;;;;;;;;;;;;;;17.20;47.20;100522.91;5063740;28;1011;-57
2022/08/12 14:25:57;;;;;;;;;;;;;;;17.14;47.57;100527.59;5064333;28;1040;-64
2022/08/12 14:28:23;;;;;;;;;;;;;;;17.21;47.20;100524.56;5071569;28;973;-62
2022/08/12 14:30:59;;;;;;;;;;;;;;;17.17;47.31;100527.03;5072890;28;1164;-65
2022/08/12 14:33:34;;;;;;;;;;;;;;;17.17;47.35;100521.53;5064994;28;954;-63
2022/08/12 14:36:00;;;;;;;;;;;;;;;17.20;47.35;100520.16;5075464;28;1917;-62
2022/08/12 14:38:27;;;;;;;;;;;;;;;17.14;47.34;100515.78;5077694;28;1271;-64